CheckWX is a tool to help pilots better visualize weather data.  It is not intended as a substitute for an official pre-flight weather briefing.

03:09:13 UTC

KWRB TAF
Robins AFB Airport
Warner Robins, Georgia, USA
TAF KWRB 252100Z 2521/2703 07009KT 9999 OVC023 QNH2997INS BECMG 2606/2607 VRB06KT 9999 BKN015 QNH2998INS BECMG 2614/2615 VRB06KT 9999 SCT030 QNH2998INS TX29/2619Z TN21/2615Z

Aug-25@
21:00 UTC

Aug-25 @ 21:00 UTC

Aug-26@
06:00 UTC

Aug-26 @ 06:00 UTC

TAF KWRB 252100Z 2521/2703 07009KT 9999 OVC023 QNH2997INS
Wind
  • 070° at 9 KTS
Cloud Levels
  • Overcast at 2,300' AGL

Aug-26@
06:00 UTC

Aug-26 @ 06:00 UTC

Aug-26@
14:00 UTC

Aug-26 @ 14:00 UTC

BECMG 2606/2607 VRB06KT 9999 BKN015 QNH2998INS

Becoming

Becoming Conditions expected by Mon, Aug 26, 2019 @ 07:00 UTC

Wind
  • Variable at 6 KTS
Cloud Levels
  • Broken at 1,500' AGL

Aug-26@
14:00 UTC

Aug-26 @ 14:00 UTC

Aug-27@
03:00 UTC

Aug-27 @ 03:00 UTC

BECMG 2614/2615 VRB06KT 9999 SCT030 QNH2998INS TX29/2619Z TN21/2615Z

Becoming

Becoming Conditions expected by Mon, Aug 26, 2019 @ 15:00 UTC

Wind
  • Variable at 6 KTS
Cloud Levels
  • Scattered at 3,000' AGL